sensor_id;sensor_type;location;lat;lon;timestamp;P1;durP1;ratioP1;P2;durP2;ratioP2
8825;SDS011;4449;50.872;4.714;2024-01-11T00:03:49;29.85;;;18.30;;
8825;SDS011;4449;50.872;4.714;2024-01-11T00:06:17;33.45;;;20.77;;
8825;SDS011;4449;50.872;4.714;2024-01-11T00:08:45;34.33;;;20.95;;
8825;SDS011;4449;50.872;4.714;2024-01-11T00:11:13;32.15;;;20.60;;
8825;SDS011;4449;50.872;4.714;2024-01-11T00:13:40;30.75;;;20.10;;
8825;SDS011;4449;50.872;4.714;2024-01-11T00:16:08;32.97;;;20.67;;
8825;SDS011;4449;50.872;4.714;2024-01-11T00:18:36;30.27;;;20.42;;
8825;SDS011;4449;50.872;4.714;2024-01-11T00:21:05;27.17;;;19.42;;
8825;SDS011;4449;50.872;4.714;2024-01-11T00:23:33;34.75;;;19.58;;
8825;SDS011;4449;50.872;4.714;2024-01-11T00:26:00;33.30;;;20.75;;
8825;SDS011;4449;50.872;4.714;2024-01-11T00:28:28;24.25;;;16.35;;
8825;SDS011;4449;50.872;4.714;2024-01-11T00:30:56;31.83;;;19.92;;
8825;SDS011;4449;50.872;4.714;2024-01-11T00:33:24;27.88;;;19.40;;
8825;SDS011;4449;50.872;4.714;2024-01-11T00:35:51;29.38;;;19.05;;
8825;SDS011;4449;50.872;4.714;2024-01-11T00:38:21;32.03;;;19.98;;
8825;SDS011;4449;50.872;4.714;2024-01-11T00:40:48;29.60;;;20.20;;
8825;SDS011;4449;50.872;4.714;2024-01-11T00:43:16;30.33;;;20.13;;
8825;SDS011;4449;50.872;4.714;2024-01-11T00:45:44;29.63;;;20.33;;
8825;SDS011;4449;50.872;4.714;2024-01-11T00:48:12;29.58;;;18.85;;
8825;SDS011;4449;50.872;4.714;2024-01-11T00:50:40;35.85;;;21.00;;
8825;SDS011;4449;50.872;4.714;2024-01-11T00:53:07;27.98;;;18.40;;
8825;SDS011;4449;50.872;4.714;2024-01-11T00:55:37;31.00;;;19.83;;
8825;SDS011;4449;50.872;4.714;2024-01-11T00:58:05;31.98;;;19.92;;
8825;SDS011;4449;50.872;4.714;2024-01-11T01:00:33;31.60;;;19.88;;
8825;SDS011;4449;50.872;4.714;2024-01-11T01:03:01;33.08;;;20.42;;
8825;SDS011;4449;50.872;4.714;2024-01-11T01:05:29;28.27;;;18.80;;
8825;SDS011;4449;50.872;4.714;2024-01-11T01:07:56;32.10;;;19.80;;
8825;SDS011;4449;50.872;4.714;2024-01-11T01:10:24;35.25;;;19.33;;
8825;SDS011;4449;50.872;4.714;2024-01-11T01:12:53;29.55;;;19.15;;
8825;SDS011;4449;50.872;4.714;2024-01-11T01:15:20;26.95;;;18.35;;
8825;SDS011;4449;50.872;4.714;2024-01-11T01:17:48;27.27;;;18.73;;
8825;SDS011;4449;50.872;4.714;2024-01-11T01:20:16;30.73;;;19.15;;
8825;SDS011;4449;50.872;4.714;2024-01-11T01:22:43;25.23;;;18.00;;
8825;SDS011;4449;50.872;4.714;2024-01-11T01:25:11;29.98;;;18.58;;
8825;SDS011;4449;50.872;4.714;2024-01-11T01:27:39;29.00;;;19.35;;
8825;SDS011;4449;50.872;4.714;2024-01-11T01:30:08;31.48;;;19.90;;
8825;SDS011;4449;50.872;4.714;2024-01-11T01:32:36;27.33;;;18.42;;
8825;SDS011;4449;50.872;4.714;2024-01-11T01:35:04;28.33;;;18.33;;
8825;SDS011;4449;50.872;4.714;2024-01-11T01:37:33;26.13;;;23.00;;
8825;SDS011;4449;50.872;4.714;2024-01-11T01:40:00;29.77;;;19.50;;
8825;SDS011;4449;50.872;4.714;2024-01-11T01:42:28;27.58;;;18.80;;
8825;SDS011;4449;50.872;4.714;2024-01-11T01:44:56;27.30;;;19.83;;
8825;SDS011;4449;50.872;4.714;2024-01-11T01:47:25;31.30;;;19.65;;
8825;SDS011;4449;50.872;4.714;2024-01-11T01:49:54;26.02;;;17.70;;
8825;SDS011;4449;50.872;4.714;2024-01-11T01:52:22;26.48;;;18.80;;
8825;SDS011;4449;50.872;4.714;2024-01-11T01:54:49;28.80;;;19.08;;
8825;SDS011;4449;50.872;4.714;2024-01-11T01:57:17;28.98;;;19.08;;
8825;SDS011;4449;50.872;4.714;2024-01-11T01:59:46;28.77;;;19.08;;
8825;SDS011;4449;50.872;4.714;2024-01-11T02:02:16;32.88;;;20.05;;
8825;SDS011;4449;50.872;4.714;2024-01-11T02:04:45;30.67;;;19.95;;
8825;SDS011;4449;50.872;4.714;2024-01-11T02:07:13;29.83;;;20.00;;
8825;SDS011;4449;50.872;4.714;2024-01-11T02:09:41;27.10;;;18.65;;
8825;SDS011;4449;50.872;4.714;2024-01-11T02:12:10;27.20;;;18.92;;
8825;SDS011;4449;50.872;4.714;2024-01-11T02:14:38;28.92;;;19.15;;
8825;SDS011;4449;50.872;4.714;2024-01-11T02:17:06;29.05;;;18.13;;
8825;SDS011;4449;50.872;4.714;2024-01-11T02:19:33;30.60;;;18.98;;
8825;SDS011;4449;50.872;4.714;2024-01-11T02:22:05;27.80;;;19.50;;
8825;SDS011;4449;50.872;4.714;2024-01-11T02:24:35;29.75;;;19.23;;
8825;SDS011;4449;50.872;4.714;2024-01-11T02:27:03;32.00;;;20.23;;
8825;SDS011;4449;50.872;4.714;2024-01-11T02:29:31;30.77;;;18.65;;
8825;SDS011;4449;50.872;4.714;2024-01-11T02:32:00;30.50;;;19.88;;
8825;SDS011;4449;50.872;4.714;2024-01-11T02:34:28;28.35;;;19.60;;
8825;SDS011;4449;50.872;4.714;2024-01-11T02:36:56;26.75;;;18.33;;
8825;SDS011;4449;50.872;4.714;2024-01-11T02:39:24;31.15;;;19.60;;
8825;SDS011;4449;50.872;4.714;2024-01-11T02:41:54;28.42;;;19.10;;
8825;SDS011;4449;50.872;4.714;2024-01-11T02:44:22;29.23;;;18.88;;
8825;SDS011;4449;50.872;4.714;2024-01-11T02:46:49;28.95;;;18.83;;
8825;SDS011;4449;50.872;4.714;2024-01-11T02:49:17;27.75;;;18.60;;
8825;SDS011;4449;50.872;4.714;2024-01-11T02:51:45;29.92;;;19.60;;
8825;SDS011;4449;50.872;4.714;2024-01-11T02:54:13;27.15;;;18.35;;
8825;SDS011;4449;50.872;4.714;2024-01-11T02:56:40;31.52;;;19.02;;
8825;SDS011;4449;50.872;4.714;2024-01-11T02:59:10;26.67;;;19.13;;
8825;SDS011;4449;50.872;4.714;2024-01-11T03:01:37;28.92;;;18.50;;
8825;SDS011;4449;50.872;4.714;2024-01-11T03:04:05;29.88;;;20.05;;
8825;SDS011;4449;50.872;4.714;2024-01-11T03:06:33;32.97;;;19.50;;
8825;SDS011;4449;50.872;4.714;2024-01-11T03:09:01;28.15;;;19.17;;
8825;SDS011;4449;50.872;4.714;2024-01-11T03:11:29;30.50;;;18.90;;
8825;SDS011;4449;50.872;4.714;2024-01-11T03:13:56;21.58;;;14.98;;
8825;SDS011;4449;50.872;4.714;2024-01-11T03:16:25;29.42;;;19.23;;
8825;SDS011;4449;50.872;4.714;2024-01-11T03:18:53;27.55;;;18.10;;
8825;SDS011;4449;50.872;4.714;2024-01-11T03:21:21;32.95;;;19.48;;
8825;SDS011;4449;50.872;4.714;2024-01-11T03:23:49;27.80;;;19.20;;
8825;SDS011;4449;50.872;4.714;2024-01-11T03:26:17;27.63;;;18.70;;
8825;SDS011;4449;50.872;4.714;2024-01-11T03:28:44;28.70;;;18.77;;
8825;SDS011;4449;50.872;4.714;2024-01-11T03:31:12;28.42;;;19.38;;
8825;SDS011;4449;50.872;4.714;2024-01-11T03:33:41;28.27;;;19.75;;
8825;SDS011;4449;50.872;4.714;2024-01-11T03:36:09;31.50;;;19.02;;
8825;SDS011;4449;50.872;4.714;2024-01-11T03:38:37;29.45;;;18.80;;
8825;SDS011;4449;50.872;4.714;2024-01-11T03:41:07;30.77;;;20.40;;
8825;SDS011;4449;50.872;4.714;2024-01-11T03:43:35;27.45;;;18.88;;
8825;SDS011;4449;50.872;4.714;2024-01-11T03:46:03;28.27;;;19.77;;
8825;SDS011;4449;50.872;4.714;2024-01-11T03:48:31;30.73;;;20.30;;
8825;SDS011;4449;50.872;4.714;2024-01-11T03:51:02;27.65;;;19.13;;
8825;SDS011;4449;50.872;4.714;2024-01-11T03:53:30;25.55;;;16.83;;
8825;SDS011;4449;50.872;4.714;2024-01-11T03:55:58;28.25;;;18.60;;
8825;SDS011;4449;50.872;4.714;2024-01-11T03:58:25;29.42;;;18.98;;
8825;SDS011;4449;50.872;4.714;2024-01-11T04:00:53;26.23;;;18.10;;
8825;SDS011;4449;50.872;4.714;2024-01-11T04:03:21;30.40;;;19.42;;
8825;SDS011;4449;50.872;4.714;2024-01-11T04:05:48;28.00;;;19.13;;
8825;SDS011;4449;50.872;4.714;2024-01-11T04:08:18;27.10;;;19.48;;
8825;SDS011;4449;50.872;4.714;2024-01-11T04:10:45;29.88;;;19.90;;
8825;SDS011;4449;50.872;4.714;2024-01-11T04:13:13;28.17;;;19.65;;
8825;SDS011;4449;50.872;4.714;2024-01-11T04:15:41;28.88;;;19.75;;
8825;SDS011;4449;50.872;4.714;2024-01-11T04:18:09;32.88;;;20.95;;
8825;SDS011;4449;50.872;4.714;2024-01-11T04:20:36;29.45;;;19.13;;
8825;SDS011;4449;50.872;4.714;2024-01-11T04:23:04;27.50;;;19.95;;
8825;SDS011;4449;50.872;4.714;2024-01-11T04:25:33;29.80;;;19.83;;
8825;SDS011;4449;50.872;4.714;2024-01-11T04:28:01;31.65;;;20.88;;
8825;SDS011;4449;50.872;4.714;2024-01-11T04:30:29;31.35;;;19.73;;
8825;SDS011;4449;50.872;4.714;2024-01-11T04:32:56;31.05;;;19.55;;
8825;SDS011;4449;50.872;4.714;2024-01-11T04:35:24;28.75;;;20.08;;
8825;SDS011;4449;50.872;4.714;2024-01-11T04:37:52;36.03;;;20.23;;
8825;SDS011;4449;50.872;4.714;2024-01-11T04:40:20;29.00;;;19.25;;
8825;SDS011;4449;50.872;4.714;2024-01-11T04:42:49;28.92;;;19.38;;
8825;SDS011;4449;50.872;4.714;2024-01-11T04:45:17;29.20;;;20.35;;
8825;SDS011;4449;50.872;4.714;2024-01-11T04:47:44;31.48;;;19.52;;
8825;SDS011;4449;50.872;4.714;2024-01-11T04:50:12;29.83;;;19.98;;
8825;SDS011;4449;50.872;4.714;2024-01-11T04:52:40;29.45;;;21.17;;
8825;SDS011;4449;50.872;4.714;2024-01-11T04:55:08;31.90;;;19.58;;
8825;SDS011;4449;50.872;4.714;2024-01-11T04:57:35;32.03;;;19.15;;
8825;SDS011;4449;50.872;4.714;2024-01-11T05:00:05;30.63;;;18.75;;
8825;SDS011;4449;50.872;4.714;2024-01-11T05:02:33;27.50;;;19.23;;
8825;SDS011;4449;50.872;4.714;2024-01-11T05:05:01;30.05;;;19.77;;
8825;SDS011;4449;50.872;4.714;2024-01-11T05:07:29;32.97;;;19.75;;
8825;SDS011;4449;50.872;4.714;2024-01-11T05:09:56;29.10;;;19.85;;
8825;SDS011;4449;50.872;4.714;2024-01-11T05:12:24;34.08;;;20.17;;
8825;SDS011;4449;50.872;4.714;2024-01-11T05:14:51;30.13;;;19.15;;
8825;SDS011;4449;50.872;4.714;2024-01-11T05:17:20;27.23;;;19.15;;
8825;SDS011;4449;50.872;4.714;2024-01-11T05:19:48;32.78;;;20.65;;
8825;SDS011;4449;50.872;4.714;2024-01-11T05:22:16;27.30;;;19.23;;
8825;SDS011;4449;50.872;4.714;2024-01-11T05:24:43;28.88;;;18.48;;
8825;SDS011;4449;50.872;4.714;2024-01-11T05:27:11;30.55;;;20.15;;
8825;SDS011;4449;50.872;4.714;2024-01-11T05:29:39;27.92;;;19.90;;
8825;SDS011;4449;50.872;4.714;2024-01-11T05:32:06;31.17;;;19.08;;
8825;SDS011;4449;50.872;4.714;2024-01-11T05:34:35;32.60;;;19.90;;
8825;SDS011;4449;50.872;4.714;2024-01-11T05:37:03;30.10;;;19.95;;
8825;SDS011;4449;50.872;4.714;2024-01-11T05:39:31;29.80;;;20.02;;
8825;SDS011;4449;50.872;4.714;2024-01-11T05:41:58;32.67;;;19.80;;
8825;SDS011;4449;50.872;4.714;2024-01-11T05:44:26;31.10;;;18.83;;
8825;SDS011;4449;50.872;4.714;2024-01-11T05:46:54;34.13;;;19.80;;
8825;SDS011;4449;50.872;4.714;2024-01-11T05:49:21;29.52;;;18.95;;
8825;SDS011;4449;50.872;4.714;2024-01-11T05:51:50;34.03;;;20.63;;
8825;SDS011;4449;50.872;4.714;2024-01-11T05:54:18;29.58;;;19.67;;
8825;SDS011;4449;50.872;4.714;2024-01-11T05:56:46;31.73;;;18.58;;
8825;SDS011;4449;50.872;4.714;2024-01-11T05:59:15;34.22;;;20.17;;
8825;SDS011;4449;50.872;4.714;2024-01-11T06:01:43;31.23;;;20.52;;
8825;SDS011;4449;50.872;4.714;2024-01-11T06:04:11;29.90;;;19.65;;
8825;SDS011;4449;50.872;4.714;2024-01-11T06:06:39;33.53;;;19.50;;
8825;SDS011;4449;50.872;4.714;2024-01-11T06:09:08;28.38;;;19.52;;
8825;SDS011;4449;50.872;4.714;2024-01-11T06:11:36;29.90;;;20.23;;
8825;SDS011;4449;50.872;4.714;2024-01-11T06:14:04;31.63;;;20.60;;
8825;SDS011;4449;50.872;4.714;2024-01-11T06:16:32;34.80;;;21.63;;
8825;SDS011;4449;50.872;4.714;2024-01-11T06:18:59;34.83;;;23.23;;
8825;SDS011;4449;50.872;4.714;2024-01-11T06:21:27;33.65;;;21.20;;
8825;SDS011;4449;50.872;4.714;2024-01-11T06:23:55;29.52;;;19.83;;
8825;SDS011;4449;50.872;4.714;2024-01-11T06:26:24;32.97;;;20.75;;
8825;SDS011;4449;50.872;4.714;2024-01-11T06:28:52;33.17;;;20.58;;
8825;SDS011;4449;50.872;4.714;2024-01-11T06:31:19;34.10;;;20.67;;
8825;SDS011;4449;50.872;4.714;2024-01-11T06:33:47;28.45;;;20.08;;
8825;SDS011;4449;50.872;4.714;2024-01-11T06:36:15;32.00;;;20.38;;
8825;SDS011;4449;50.872;4.714;2024-01-11T06:38:43;37.47;;;24.75;;
8825;SDS011;4449;50.872;4.714;2024-01-11T06:41:10;33.50;;;22.02;;
8825;SDS011;4449;50.872;4.714;2024-01-11T06:43:39;31.92;;;20.25;;
8825;SDS011;4449;50.872;4.714;2024-01-11T06:46:07;30.33;;;20.80;;
8825;SDS011;4449;50.872;4.714;2024-01-11T06:48:36;33.58;;;21.83;;
8825;SDS011;4449;50.872;4.714;2024-01-11T06:51:04;34.58;;;20.77;;
8825;SDS011;4449;50.872;4.714;2024-01-11T06:53:31;32.03;;;21.35;;
8825;SDS011;4449;50.872;4.714;2024-01-11T06:55:59;33.78;;;20.92;;
8825;SDS011;4449;50.872;4.714;2024-01-11T06:58:27;29.70;;;20.10;;
8825;SDS011;4449;50.872;4.714;2024-01-11T07:00:56;32.58;;;21.17;;
8825;SDS011;4449;50.872;4.714;2024-01-11T07:03:24;33.65;;;20.83;;
8825;SDS011;4449;50.872;4.714;2024-01-11T07:05:51;33.67;;;21.38;;
8825;SDS011;4449;50.872;4.714;2024-01-11T07:08:19;35.05;;;21.15;;
8825;SDS011;4449;50.872;4.714;2024-01-11T07:10:47;33.13;;;20.95;;
8825;SDS011;4449;50.872;4.714;2024-01-11T07:13:15;49.30;;;21.75;;
8825;SDS011;4449;50.872;4.714;2024-01-11T07:15:43;30.30;;;20.30;;
8825;SDS011;4449;50.872;4.714;2024-01-11T07:18:12;33.88;;;20.58;;
8825;SDS011;4449;50.872;4.714;2024-01-11T07:20:40;36.05;;;19.92;;
8825;SDS011;4449;50.872;4.714;2024-01-11T07:23:08;34.97;;;20.23;;
8825;SDS011;4449;50.872;4.714;2024-01-11T07:25:35;39.78;;;20.85;;
8825;SDS011;4449;50.872;4.714;2024-01-11T07:28:04;36.08;;;20.38;;
8825;SDS011;4449;50.872;4.714;2024-01-11T07:30:32;35.40;;;20.27;;
8825;SDS011;4449;50.872;4.714;2024-01-11T07:33:00;35.42;;;20.60;;
8825;SDS011;4449;50.872;4.714;2024-01-11T07:35:31;35.00;;;21.17;;
8825;SDS011;4449;50.872;4.714;2024-01-11T07:37:59;33.45;;;21.50;;
8825;SDS011;4449;50.872;4.714;2024-01-11T07:40:26;35.25;;;21.60;;
8825;SDS011;4449;50.872;4.714;2024-01-11T07:42:54;34.58;;;21.83;;
8825;SDS011;4449;50.872;4.714;2024-01-11T07:45:21;30.88;;;22.33;;
8825;SDS011;4449;50.872;4.714;2024-01-11T07:51:26;37.17;;;21.60;;
8825;SDS011;4449;50.872;4.714;2024-01-11T07:54:26;42.42;;;31.80;;
8825;SDS011;4449;50.872;4.714;2024-01-11T07:56:54;39.38;;;25.77;;
8825;SDS011;4449;50.872;4.714;2024-01-11T07:59:22;37.97;;;23.23;;
8825;SDS011;4449;50.872;4.714;2024-01-11T08:01:49;33.38;;;22.77;;
8825;SDS011;4449;50.872;4.714;2024-01-11T08:04:19;34.13;;;22.67;;
8825;SDS011;4449;50.872;4.714;2024-01-11T08:06:48;33.75;;;22.55;;
8825;SDS011;4449;50.872;4.714;2024-01-11T08:09:18;35.65;;;22.95;;
8825;SDS011;4449;50.872;4.714;2024-01-11T08:11:46;36.67;;;23.75;;
8825;SDS011;4449;50.872;4.714;2024-01-11T08:14:13;35.58;;;21.58;;
8825;SDS011;4449;50.872;4.714;2024-01-11T08:16:41;37.25;;;22.90;;
8825;SDS011;4449;50.872;4.714;2024-01-11T08:19:09;47.92;;;23.95;;
8825;SDS011;4449;50.872;4.714;2024-01-11T08:21:39;41.58;;;23.15;;
8825;SDS011;4449;50.872;4.714;2024-01-11T08:24:08;37.60;;;23.52;;
8825;SDS011;4449;50.872;4.714;2024-01-11T08:26:36;36.67;;;22.27;;
8825;SDS011;4449;50.872;4.714;2024-01-11T08:29:04;38.00;;;21.55;;
8825;SDS011;4449;50.872;4.714;2024-01-11T08:31:31;33.58;;;21.42;;
8825;SDS011;4449;50.872;4.714;2024-01-11T08:33:59;36.58;;;22.08;;
8825;SDS011;4449;50.872;4.714;2024-01-11T08:36:30;34.67;;;21.45;;
8825;SDS011;4449;50.872;4.714;2024-01-11T08:38:58;34.70;;;22.00;;
8825;SDS011;4449;50.872;4.714;2024-01-11T08:41:27;38.45;;;25.70;;
8825;SDS011;4449;50.872;4.714;2024-01-11T08:43:55;37.30;;;24.15;;
8825;SDS011;4449;50.872;4.714;2024-01-11T08:46:23;35.20;;;23.25;;
8825;SDS011;4449;50.872;4.714;2024-01-11T08:48:51;37.75;;;22.85;;
8825;SDS011;4449;50.872;4.714;2024-01-11T08:51:23;36.72;;;23.05;;
8825;SDS011;4449;50.872;4.714;2024-01-11T08:53:50;34.95;;;22.60;;
8825;SDS011;4449;50.872;4.714;2024-01-11T08:56:18;33.63;;;22.38;;
8825;SDS011;4449;50.872;4.714;2024-01-11T08:58:49;39.00;;;24.27;;
8825;SDS011;4449;50.872;4.714;2024-01-11T09:01:17;38.20;;;23.55;;
8825;SDS011;4449;50.872;4.714;2024-01-11T09:03:45;37.38;;;22.60;;
8825;SDS011;4449;50.872;4.714;2024-01-11T09:06:13;33.97;;;22.90;;
8825;SDS011;4449;50.872;4.714;2024-01-11T09:08:42;37.90;;;21.77;;
8825;SDS011;4449;50.872;4.714;2024-01-11T09:11:10;36.85;;;23.95;;
8825;SDS011;4449;50.872;4.714;2024-01-11T09:13:38;36.72;;;22.65;;
8825;SDS011;4449;50.872;4.714;2024-01-11T09:16:07;37.22;;;23.88;;
8825;SDS011;4449;50.872;4.714;2024-01-11T09:18:35;34.95;;;23.90;;
8825;SDS011;4449;50.872;4.714;2024-01-11T09:34:54;37.63;;;21.98;;
8825;SDS011;4449;50.872;4.714;2024-01-11T09:37:22;34.67;;;23.02;;
8825;SDS011;4449;50.872;4.714;2024-01-11T09:39:50;35.53;;;24.35;;
8825;SDS011;4449;50.872;4.714;2024-01-11T09:42:18;34.38;;;23.13;;
8825;SDS011;4449;50.872;4.714;2024-01-11T09:44:45;38.42;;;23.40;;
8825;SDS011;4449;50.872;4.714;2024-01-11T09:47:13;34.90;;;22.65;;
8825;SDS011;4449;50.872;4.714;2024-01-11T09:49:44;36.72;;;23.50;;
8825;SDS011;4449;50.872;4.714;2024-01-11T09:52:16;38.35;;;24.77;;
8825;SDS011;4449;50.872;4.714;2024-01-11T09:54:44;42.63;;;26.65;;
8825;SDS011;4449;50.872;4.714;2024-01-11T09:57:12;37.13;;;25.23;;
8825;SDS011;4449;50.872;4.714;2024-01-11T09:59:42;40.30;;;23.67;;
8825;SDS011;4449;50.872;4.714;2024-01-11T10:02:10;32.78;;;22.58;;
8825;SDS011;4449;50.872;4.714;2024-01-11T10:04:38;35.38;;;22.98;;
8825;SDS011;4449;50.872;4.714;2024-01-11T10:07:08;35.45;;;24.33;;
8825;SDS011;4449;50.872;4.714;2024-01-11T10:09:38;37.20;;;25.02;;
8825;SDS011;4449;50.872;4.714;2024-01-11T10:12:06;32.17;;;20.60;;
8825;SDS011;4449;50.872;4.714;2024-01-11T10:14:34;34.33;;;23.00;;
8825;SDS011;4449;50.872;4.714;2024-01-11T10:17:02;35.22;;;23.42;;
8825;SDS011;4449;50.872;4.714;2024-01-11T10:19:30;41.97;;;28.95;;
8825;SDS011;4449;50.872;4.714;2024-01-11T10:21:58;35.55;;;24.25;;
8825;SDS011;4449;50.872;4.714;2024-01-11T10:24:26;35.95;;;23.38;;
8825;SDS011;4449;50.872;4.714;2024-01-11T10:26:56;35.83;;;25.10;;
8825;SDS011;4449;50.872;4.714;2024-01-11T10:29:30;36.15;;;25.20;;
8825;SDS011;4449;50.872;4.714;2024-01-11T10:31:58;50.60;;;26.70;;
8825;SDS011;4449;50.872;4.714;2024-01-11T10:34:31;63.08;;;27.15;;
8825;SDS011;4449;50.872;4.714;2024-01-11T10:37:00;36.58;;;25.88;;
8825;SDS011;4449;50.872;4.714;2024-01-11T10:39:30;39.22;;;25.98;;
8825;SDS011;4449;50.872;4.714;2024-01-11T10:42:04;38.45;;;26.23;;
8825;SDS011;4449;50.872;4.714;2024-01-11T10:47:19;36.58;;;25.33;;
8825;SDS011;4449;50.872;4.714;2024-01-11T10:49:47;37.97;;;24.92;;
8825;SDS011;4449;50.872;4.714;2024-01-11T10:52:17;39.53;;;24.95;;
8825;SDS011;4449;50.872;4.714;2024-01-11T10:54:49;40.30;;;26.13;;
8825;SDS011;4449;50.872;4.714;2024-01-11T10:57:25;41.03;;;25.58;;
8825;SDS011;4449;50.872;4.714;2024-01-11T10:59:54;41.20;;;25.15;;
8825;SDS011;4449;50.872;4.714;2024-01-11T11:02:23;39.85;;;27.27;;
8825;SDS011;4449;50.872;4.714;2024-01-11T11:04:51;40.60;;;26.15;;
8825;SDS011;4449;50.872;4.714;2024-01-11T11:07:20;36.03;;;25.50;;
8825;SDS011;4449;50.872;4.714;2024-01-11T11:09:48;41.30;;;27.15;;
8825;SDS011;4449;50.872;4.714;2024-01-11T11:12:17;40.58;;;26.98;;
8825;SDS011;4449;50.872;4.714;2024-01-11T11:14:47;37.70;;;26.40;;
8825;SDS011;4449;50.872;4.714;2024-01-11T11:17:15;39.88;;;27.05;;
8825;SDS011;4449;50.872;4.714;2024-01-11T12:20:04;31.60;;;21.45;;
8825;SDS011;4449;50.872;4.714;2024-01-11T12:22:33;30.98;;;20.90;;
8825;SDS011;4449;50.872;4.714;2024-01-11T12:25:02;37.33;;;22.27;;
8825;SDS011;4449;50.872;4.714;2024-01-11T12:27:30;28.30;;;20.83;;
8825;SDS011;4449;50.872;4.714;2024-01-11T12:29:58;35.30;;;22.55;;
8825;SDS011;4449;50.872;4.714;2024-01-11T12:32:25;31.83;;;20.75;;
8825;SDS011;4449;50.872;4.714;2024-01-11T12:34:55;33.35;;;21.42;;
8825;SDS011;4449;50.872;4.714;2024-01-11T12:37:24;30.88;;;20.80;;
8825;SDS011;4449;50.872;4.714;2024-01-11T12:39:56;29.10;;;20.27;;
8825;SDS011;4449;50.872;4.714;2024-01-11T12:42:24;29.25;;;17.52;;
8825;SDS011;4449;50.872;4.714;2024-01-11T12:44:52;27.42;;;19.77;;
8825;SDS011;4449;50.872;4.714;2024-01-11T12:47:20;27.07;;;19.07;;
8825;SDS011;4449;50.872;4.714;2024-01-11T12:49:50;25.93;;;19.00;;
8825;SDS011;4449;50.872;4.714;2024-01-11T12:52:18;28.00;;;17.93;;
8825;SDS011;4449;50.872;4.714;2024-01-11T12:54:47;27.47;;;18.27;;
8825;SDS011;4449;50.872;4.714;2024-01-11T12:57:19;34.15;;;21.40;;
8825;SDS011;4449;50.872;4.714;2024-01-11T12:59:47;29.23;;;19.20;;
8825;SDS011;4449;50.872;4.714;2024-01-11T13:02:15;30.42;;;18.92;;
8825;SDS011;4449;50.872;4.714;2024-01-11T13:04:43;25.20;;;18.27;;
8825;SDS011;4449;50.872;4.714;2024-01-11T13:07:11;27.17;;;19.20;;
8825;SDS011;4449;50.872;4.714;2024-01-11T13:09:41;29.00;;;19.65;;
8825;SDS011;4449;50.872;4.714;2024-01-11T13:12:10;36.05;;;19.77;;
8825;SDS011;4449;50.872;4.714;2024-01-11T13:14:38;26.60;;;17.45;;
8825;SDS011;4449;50.872;4.714;2024-01-11T13:17:06;24.70;;;17.58;;
8825;SDS011;4449;50.872;4.714;2024-01-11T13:19:33;24.15;;;17.77;;
8825;SDS011;4449;50.872;4.714;2024-01-11T13:22:01;24.35;;;17.40;;
8825;SDS011;4449;50.872;4.714;2024-01-11T13:24:29;25.17;;;16.40;;
8825;SDS011;4449;50.872;4.714;2024-01-11T13:26:57;26.13;;;17.90;;
8825;SDS011;4449;50.872;4.714;2024-01-11T13:29:26;27.20;;;18.17;;
8825;SDS011;4449;50.872;4.714;2024-01-11T13:31:55;23.92;;;17.52;;
8825;SDS011;4449;50.872;4.714;2024-01-11T13:34:25;23.33;;;16.75;;
8825;SDS011;4449;50.872;4.714;2024-01-11T13:36:53;22.63;;;16.45;;
8825;SDS011;4449;50.872;4.714;2024-01-11T13:39:20;25.83;;;17.02;;
8825;SDS011;4449;50.872;4.714;2024-01-11T13:41:49;23.45;;;15.48;;
8825;SDS011;4449;50.872;4.714;2024-01-11T13:44:17;24.08;;;16.42;;
8825;SDS011;4449;50.872;4.714;2024-01-11T13:46:46;25.15;;;16.65;;
8825;SDS011;4449;50.872;4.714;2024-01-11T13:49:14;26.02;;;16.77;;
8825;SDS011;4449;50.872;4.714;2024-01-11T13:51:45;24.45;;;16.35;;
8825;SDS011;4449;50.872;4.714;2024-01-11T13:54:13;21.58;;;15.68;;
8825;SDS011;4449;50.872;4.714;2024-01-11T13:56:44;25.55;;;16.65;;
8825;SDS011;4449;50.872;4.714;2024-01-11T13:59:12;24.33;;;16.00;;
8825;SDS011;4449;50.872;4.714;2024-01-11T14:01:39;21.87;;;15.43;;
8825;SDS011;4449;50.872;4.714;2024-01-11T14:04:09;22.87;;;16.43;;
8825;SDS011;4449;50.872;4.714;2024-01-11T14:06:36;20.90;;;16.60;;
8825;SDS011;4449;50.872;4.714;2024-01-11T14:09:04;22.38;;;15.65;;
8825;SDS011;4449;50.872;4.714;2024-01-11T14:11:34;20.60;;;15.77;;
8825;SDS011;4449;50.872;4.714;2024-01-11T14:14:02;22.83;;;15.98;;
8825;SDS011;4449;50.872;4.714;2024-01-11T14:16:33;25.83;;;15.68;;
8825;SDS011;4449;50.872;4.714;2024-01-11T14:19:01;23.65;;;16.48;;
8825;SDS011;4449;50.872;4.714;2024-01-11T14:21:30;23.83;;;14.98;;
8825;SDS011;4449;50.872;4.714;2024-01-11T14:23:58;20.13;;;15.32;;
8825;SDS011;4449;50.872;4.714;2024-01-11T14:26:26;23.27;;;15.70;;
8825;SDS011;4449;50.872;4.714;2024-01-11T14:28:53;20.20;;;14.80;;
8825;SDS011;4449;50.872;4.714;2024-01-11T14:31:22;18.98;;;14.85;;
8825;SDS011;4449;50.872;4.714;2024-01-11T14:33:49;25.67;;;16.50;;
8825;SDS011;4449;50.872;4.714;2024-01-11T14:36:17;29.38;;;17.70;;
8825;SDS011;4449;50.872;4.714;2024-01-11T14:38:46;18.73;;;14.15;;
8825;SDS011;4449;50.872;4.714;2024-01-11T14:41:15;18.67;;;14.23;;
8825;SDS011;4449;50.872;4.714;2024-01-11T14:43:42;21.38;;;14.02;;
8825;SDS011;4449;50.872;4.714;2024-01-11T14:46:11;14.30;;;11.50;;
8825;SDS011;4449;50.872;4.714;2024-01-11T14:48:39;16.98;;;12.38;;
8825;SDS011;4449;50.872;4.714;2024-01-11T14:51:07;19.80;;;15.07;;
8825;SDS011;4449;50.872;4.714;2024-01-11T14:53:35;21.07;;;14.93;;
8825;SDS011;4449;50.872;4.714;2024-01-11T14:56:04;21.83;;;15.00;;
8825;SDS011;4449;50.872;4.714;2024-01-11T14:58:32;20.77;;;15.30;;
8825;SDS011;4449;50.872;4.714;2024-01-11T15:01:00;23.77;;;15.57;;
8825;SDS011;4449;50.872;4.714;2024-01-11T15:03:29;25.97;;;16.47;;
8825;SDS011;4449;50.872;4.714;2024-01-11T15:05:56;24.80;;;15.80;;
8825;SDS011;4449;50.872;4.714;2024-01-11T15:08:24;24.73;;;16.10;;
8825;SDS011;4449;50.872;4.714;2024-01-11T15:10:52;24.77;;;16.13;;
8825;SDS011;4449;50.872;4.714;2024-01-11T15:13:21;24.63;;;16.50;;
8825;SDS011;4449;50.872;4.714;2024-01-11T15:15:49;24.90;;;17.35;;
8825;SDS011;4449;50.872;4.714;2024-01-11T15:18:17;22.38;;;16.38;;
8825;SDS011;4449;50.872;4.714;2024-01-11T15:20:44;23.70;;;15.95;;
8825;SDS011;4449;50.872;4.714;2024-01-11T15:23:12;23.05;;;15.75;;
8825;SDS011;4449;50.872;4.714;2024-01-11T15:25:40;26.98;;;17.98;;
8825;SDS011;4449;50.872;4.714;2024-01-11T15:28:10;24.85;;;17.83;;
8825;SDS011;4449;50.872;4.714;2024-01-11T15:30:39;23.42;;;17.33;;
8825;SDS011;4449;50.872;4.714;2024-01-11T15:33:07;23.08;;;17.75;;
8825;SDS011;4449;50.872;4.714;2024-01-11T15:50:31;27.48;;;18.23;;
8825;SDS011;4449;50.872;4.714;2024-01-11T15:52:59;27.58;;;17.73;;
8825;SDS011;4449;50.872;4.714;2024-01-11T15:55:26;25.30;;;17.50;;
8825;SDS011;4449;50.872;4.714;2024-01-11T15:57:54;22.73;;;17.52;;
8825;SDS011;4449;50.872;4.714;2024-01-11T16:00:24;25.48;;;19.02;;
8825;SDS011;4449;50.872;4.714;2024-01-11T16:02:52;21.45;;;16.38;;
8825;SDS011;4449;50.872;4.714;2024-01-11T16:05:21;22.00;;;17.10;;
8825;SDS011;4449;50.872;4.714;2024-01-11T16:07:50;27.23;;;17.25;;
8825;SDS011;4449;50.872;4.714;2024-01-11T16:10:18;25.40;;;18.10;;
8825;SDS011;4449;50.872;4.714;2024-01-11T16:12:46;25.23;;;18.45;;
8825;SDS011;4449;50.872;4.714;2024-01-11T16:15:14;26.77;;;19.67;;
8825;SDS011;4449;50.872;4.714;2024-01-11T16:17:42;29.00;;;19.33;;
8825;SDS011;4449;50.872;4.714;2024-01-11T16:20:10;26.45;;;18.25;;
8825;SDS011;4449;50.872;4.714;2024-01-11T16:22:38;25.42;;;18.38;;
8825;SDS011;4449;50.872;4.714;2024-01-11T16:25:07;24.33;;;18.35;;
8825;SDS011;4449;50.872;4.714;2024-01-11T16:27:35;26.80;;;19.45;;
8825;SDS011;4449;50.872;4.714;2024-01-11T16:30:03;27.02;;;18.80;;
8825;SDS011;4449;50.872;4.714;2024-01-11T16:32:31;23.38;;;18.00;;